Hopton on Sea, United Kingdom
Current Conditions -  °F | °C
As of 6:50 PM on Friday 24 Oct 2014 (Local Time) from EGSD Reporting Station
Few Clouds Few Clouds  
Wind Chill: 61°   Ceiling: Unl
Heat Index: 61°   Visibility: 6mi
Dew Point: 59°   Wind: 8mph
Humidity: 94%   Direction: 190°S
Pressure: 29.88"   Gusts: NA
Location:  52.53°N, 1.73°E
Report Text: EGSD 241750Z 19007KT 9999 FEW017 16/15 Q1012
Loading
Personal Weather Stations






























Interactive Weather Map
Tropical Storm Tracking
New forecast layout! Learn more

10-Day Weather Forecast

Advertisements
Track Severe Weather on mobile